createdAt,value
2022-12-15T00:01:38.089Z,23.33
2022-12-15T00:04:23.319Z,25.58
2022-12-15T00:07:08.579Z,24.98
2022-12-15T00:09:53.449Z,29.08
2022-12-15T00:12:38.803Z,24.48
2022-12-15T00:15:24.113Z,30.17
2022-12-15T00:18:08.850Z,31.15
2022-12-15T00:20:53.592Z,27.38
2022-12-15T00:23:38.376Z,27.17
2022-12-15T00:26:23.547Z,29.25
2022-12-15T00:29:08.632Z,23.48
2022-12-15T00:31:53.363Z,27.27
2022-12-15T00:34:38.214Z,27.67
2022-12-15T00:37:22.990Z,28.00
2022-12-15T00:39:59.089Z,25.27
2022-12-15T00:42:28.589Z,24.25
2022-12-15T00:44:58.584Z,25.95
2022-12-15T00:47:25.489Z,27.55
2022-12-15T00:50:10.531Z,28.88
2022-12-15T00:52:55.090Z,28.30
2022-12-15T00:55:40.475Z,26.00
2022-12-15T00:58:25.184Z,23.75
2022-12-15T01:01:09.899Z,30.30
2022-12-15T01:03:54.554Z,28.95
2022-12-15T01:06:39.317Z,21.40
2022-12-15T01:09:26.191Z,25.30
2022-12-15T01:12:10.908Z,29.58
2022-12-15T01:14:55.701Z,24.00
2022-12-15T01:17:40.898Z,25.15
2022-12-15T01:20:18.026Z,24.70
2022-12-15T01:22:49.549Z,21.90
2022-12-15T01:25:17.686Z,27.67
2022-12-15T01:27:44.885Z,23.83
2022-12-15T01:30:13.786Z,25.92
2022-12-15T01:32:45.661Z,19.92
2022-12-15T01:35:12.483Z,25.40
2022-12-15T01:37:39.192Z,25.60
2022-12-15T01:40:26.380Z,22.23
2022-12-15T01:42:53.364Z,23.23
2022-12-15T01:45:28.923Z,24.40
2022-12-15T01:48:00.677Z,24.15
2022-12-15T01:50:29.596Z,20.52
2022-12-15T01:52:55.926Z,24.52
2022-12-15T01:55:25.831Z,22.08
2022-12-15T01:57:57.353Z,21.13
2022-12-15T02:00:23.884Z,26.48
2022-12-15T02:02:51.052Z,23.80
2022-12-15T02:05:17.972Z,21.05
2022-12-15T02:07:44.336Z,23.15
2022-12-15T02:10:11.267Z,23.38
2022-12-15T02:13:01.919Z,23.42
2022-12-15T02:15:39.772Z,22.80
2022-12-15T02:18:26.490Z,22.15
2022-12-15T02:21:17.553Z,24.15
2022-12-15T02:24:21.439Z,19.98
2022-12-15T02:27:09.990Z,21.25
2022-12-15T02:30:10.403Z,22.75
2022-12-15T02:32:43.718Z,19.55
2022-12-15T02:35:26.069Z,22.90
2022-12-15T02:37:52.476Z,21.10
2022-12-15T02:40:18.836Z,21.33
2022-12-15T02:42:51.447Z,24.05
2022-12-15T02:45:29.857Z,19.45
2022-12-15T02:48:17.409Z,22.20
2022-12-15T02:51:07.061Z,24.00
2022-12-15T02:54:10.732Z,21.42
2022-12-15T02:56:55.085Z,27.13
2022-12-15T02:59:42.223Z,23.92
2022-12-15T03:02:10.837Z,20.05
2022-12-15T03:04:37.313Z,19.92
2022-12-15T03:07:08.422Z,22.77
2022-12-15T03:09:34.931Z,26.15
2022-12-15T03:12:01.437Z,20.75
2022-12-15T03:14:27.931Z,21.63
2022-12-15T03:16:55.241Z,22.67
2022-12-15T03:19:22.016Z,21.30
2022-12-15T03:21:48.450Z,25.17
2022-12-15T03:24:14.784Z,24.85
2022-12-15T03:26:41.159Z,25.52
2022-12-15T03:29:07.809Z,22.27
2022-12-15T03:31:34.185Z,20.80
2022-12-15T03:34:00.648Z,23.67
2022-12-15T03:36:27.041Z,21.73
2022-12-15T03:38:53.366Z,23.40
2022-12-15T03:41:20.008Z,21.13
2022-12-15T03:43:46.490Z,23.42
2022-12-15T03:46:16.556Z,23.52
2022-12-15T03:48:43.034Z,22.98
2022-12-15T03:51:09.457Z,21.20
2022-12-15T03:53:35.772Z,22.83
2022-12-15T03:56:02.186Z,26.25
2022-12-15T03:58:28.576Z,20.98
2022-12-15T04:00:55.288Z,42.15
2022-12-15T04:03:21.816Z,36.13
2022-12-15T04:05:48.304Z,27.15
2022-12-15T04:08:14.646Z,24.67
2022-12-15T04:10:41.305Z,24.75
2022-12-15T04:13:10.934Z,21.40
2022-12-15T04:15:39.289Z,25.63
2022-12-15T04:18:09.672Z,23.25
2022-12-15T04:20:36.989Z,24.08
2022-12-15T04:23:03.656Z,27.48
2022-12-15T04:25:48.957Z,30.23
2022-12-15T04:28:33.967Z,26.02
2022-12-15T04:31:39.028Z,25.48
2022-12-15T04:34:26.763Z,24.63
2022-12-15T04:37:12.510Z,23.23
2022-12-15T04:40:00.736Z,25.80
2022-12-15T04:42:47.047Z,25.60
2022-12-15T04:45:33.304Z,21.30
2022-12-15T04:48:18.481Z,24.55
2022-12-15T04:51:03.366Z,21.95
2022-12-15T04:53:48.134Z,27.13
2022-12-15T04:56:34.371Z,25.33
2022-12-15T04:59:20.024Z,23.45
2022-12-15T05:02:05.496Z,26.50
2022-12-15T05:04:50.639Z,24.52
2022-12-15T05:07:35.401Z,21.70
2022-12-15T05:10:20.754Z,25.35
2022-12-15T05:13:06.035Z,27.20
2022-12-15T05:15:52.350Z,21.15
2022-12-15T05:18:38.020Z,20.92
2022-12-15T05:21:23.205Z,26.42
2022-12-15T05:24:07.971Z,23.73
2022-12-15T05:26:53.474Z,24.25
2022-12-15T05:29:39.048Z,24.75
2022-12-15T05:32:05.832Z,21.92
2022-12-15T05:34:34.397Z,27.33
2022-12-15T05:37:02.617Z,26.15
2022-12-15T05:39:29.125Z,26.73
2022-12-15T05:41:56.378Z,25.08
2022-12-15T05:44:24.305Z,25.73
2022-12-15T05:46:50.713Z,25.40
2022-12-15T05:49:18.025Z,25.00
2022-12-15T05:51:46.447Z,23.55
2022-12-15T05:54:15.986Z,24.33
2022-12-15T05:56:42.671Z,22.23
2022-12-15T05:59:09.289Z,27.23
2022-12-15T06:01:35.713Z,22.25
2022-12-15T06:04:02.193Z,23.05
2022-12-15T06:06:28.969Z,25.08
2022-12-15T06:08:55.431Z,25.83
2022-12-15T06:11:22.499Z,22.13
2022-12-15T06:13:49.362Z,22.50
2022-12-15T06:16:20.723Z,25.95
2022-12-15T06:18:50.435Z,28.65
2022-12-15T06:21:19.852Z,25.58
2022-12-15T06:23:47.951Z,30.38
2022-12-15T06:26:38.359Z,22.50
2022-12-15T06:29:10.615Z,22.55
2022-12-15T06:31:37.970Z,25.83
2022-12-15T06:34:10.737Z,26.92
2022-12-15T06:36:37.740Z,23.43
2022-12-15T06:39:06.752Z,22.55
2022-12-15T06:41:33.566Z,22.17
2022-12-15T06:44:00.626Z,26.48
2022-12-15T06:46:29.036Z,29.08
2022-12-15T06:48:55.991Z,22.33
2022-12-15T06:51:22.805Z,24.60
2022-12-15T06:53:49.790Z,29.05
2022-12-15T06:56:20.121Z,24.27
2022-12-15T06:58:51.371Z,27.38
2022-12-15T07:01:19.399Z,25.20
2022-12-15T07:03:46.140Z,25.40
2022-12-15T07:06:15.256Z,24.38
2022-12-15T07:08:42.569Z,25.73
2022-12-15T07:11:11.893Z,23.08
2022-12-15T07:13:38.455Z,22.10
2022-12-15T07:16:07.309Z,24.70
2022-12-15T07:18:34.113Z,24.88
2022-12-15T07:21:05.815Z,20.92
2022-12-15T07:23:53.452Z,24.27
2022-12-15T07:26:19.826Z,25.95
2022-12-15T07:28:46.200Z,23.50
2022-12-15T07:31:12.684Z,29.55
2022-12-15T07:33:39.073Z,30.58
2022-12-15T07:36:06.084Z,25.30
2022-12-15T07:38:32.419Z,24.23
2022-12-15T07:41:04.224Z,26.40
2022-12-15T07:43:31.781Z,20.63
2022-12-15T07:45:59.070Z,24.40
2022-12-15T07:48:27.102Z,25.02
2022-12-15T07:51:02.875Z,21.63
2022-12-15T07:53:37.268Z,26.58
2022-12-15T07:56:07.955Z,25.45
2022-12-15T07:58:35.369Z,23.35
2022-12-15T08:01:04.486Z,24.60
2022-12-15T08:03:31.445Z,28.60
2022-12-15T08:06:03.792Z,24.02
2022-12-15T08:08:31.194Z,23.58
2022-12-15T08:10:57.752Z,28.20
2022-12-15T08:13:52.980Z,25.65
2022-12-15T08:16:11.128Z,22.90
2022-12-15T08:18:37.535Z,28.00
2022-12-15T08:21:06.567Z,25.60
2022-12-15T08:23:33.423Z,29.90
2022-12-15T08:26:13.511Z,26.27
2022-12-15T08:28:40.537Z,28.70
2022-12-15T08:31:12.711Z,32.90
2022-12-15T08:33:39.605Z,34.38
2022-12-15T08:36:09.074Z,31.10
2022-12-15T08:38:38.864Z,31.23
2022-12-15T08:41:11.180Z,28.98
2022-12-15T08:43:45.769Z,31.48
2022-12-15T08:46:17.276Z,31.17
2022-12-15T08:48:44.280Z,36.10
2022-12-15T08:51:10.970Z,31.85
2022-12-15T08:53:37.374Z,36.33
2022-12-15T08:56:15.704Z,28.38
2022-12-15T08:58:43.101Z,24.85
2022-12-15T09:01:23.725Z,27.30
2022-12-15T09:03:53.651Z,24.13
2022-12-15T09:06:27.000Z,25.10
2022-12-15T09:08:59.011Z,31.52
2022-12-15T09:11:26.619Z,23.95
2022-12-15T09:13:53.254Z,27.52
2022-12-15T09:16:20.697Z,32.72
2022-12-15T09:18:53.487Z,38.03
2022-12-15T09:23:52.636Z,29.20
2022-12-15T09:26:21.252Z,29.63
2022-12-15T09:28:50.240Z,28.20
2022-12-15T09:31:22.909Z,33.92
2022-12-15T09:33:51.190Z,40.63
2022-12-15T09:36:17.548Z,30.27
2022-12-15T09:38:44.550Z,29.92
2022-12-15T09:41:13.934Z,32.17
2022-12-15T09:43:51.207Z,28.67
2022-12-15T09:46:34.186Z,22.95
2022-12-15T09:49:06.048Z,26.70
2022-12-15T09:51:44.687Z,26.88
2022-12-15T09:54:11.765Z,27.55
2022-12-15T09:56:43.879Z,31.33
2022-12-15T09:59:22.450Z,33.47
2022-12-15T10:02:10.733Z,30.75
2022-12-15T10:05:04.512Z,28.77
2022-12-15T10:07:40.123Z,27.63
2022-12-15T10:10:18.178Z,27.70
2022-12-15T10:12:57.620Z,26.20
2022-12-15T10:15:33.853Z,23.30
2022-12-15T10:18:16.184Z,28.58
2022-12-15T10:20:42.794Z,21.77
2022-12-15T10:23:13.137Z,22.27
2022-12-15T10:25:43.916Z,22.92
2022-12-15T10:28:16.551Z,25.52
2022-12-15T10:30:59.778Z,23.67
2022-12-15T10:33:30.734Z,23.60
2022-12-15T10:35:57.745Z,26.48
2022-12-15T10:38:34.349Z,26.63
2022-12-15T10:41:12.938Z,28.83
2022-12-15T10:43:45.384Z,31.25
2022-12-15T10:46:18.707Z,28.63
2022-12-15T10:49:16.951Z,23.08
2022-12-15T10:51:47.131Z,21.23
2022-12-15T10:54:15.260Z,26.08
2022-12-15T10:56:53.393Z,22.45
2022-12-15T10:59:25.695Z,22.20
2022-12-15T11:01:52.442Z,20.88
2022-12-15T11:04:31.469Z,19.60
2022-12-15T11:07:02.761Z,22.48
2022-12-15T11:09:34.883Z,19.52
2022-12-15T11:12:20.411Z,19.88
2022-12-15T11:14:49.434Z,19.50
2022-12-15T11:17:20.408Z,20.77
2022-12-15T11:19:46.834Z,19.58
2022-12-15T11:22:22.493Z,21.63
2022-12-15T11:25:03.289Z,19.08
2022-12-15T11:27:35.890Z,21.05
2022-12-15T11:30:20.867Z,19.67
2022-12-15T11:32:53.112Z,20.00
2022-12-15T11:35:25.298Z,18.10
2022-12-15T11:38:12.451Z,19.67
2022-12-15T11:40:40.839Z,17.70
2022-12-15T11:43:27.083Z,19.23
2022-12-15T11:46:01.857Z,18.83
2022-12-15T11:48:38.995Z,19.55
2022-12-15T11:51:35.414Z,22.75
2022-12-15T11:54:10.575Z,18.70
2022-12-15T11:56:45.396Z,21.05
2022-12-15T11:59:42.266Z,20.70
2022-12-15T12:02:38.345Z,25.10
2022-12-15T12:05:19.773Z,23.63
2022-12-15T12:07:52.638Z,19.55
2022-12-15T12:10:34.740Z,22.58
2022-12-15T12:13:20.744Z,20.90
2022-12-15T12:16:26.021Z,25.02
2022-12-15T12:19:08.366Z,22.45
2022-12-15T12:21:44.992Z,24.23
2022-12-15T12:24:19.814Z,24.13
2022-12-15T12:32:05.194Z,19.75
2022-12-15T12:34:39.826Z,22.33
2022-12-15T12:37:20.782Z,24.55
2022-12-15T12:39:50.909Z,22.83
2022-12-15T12:42:44.925Z,22.63
2022-12-15T12:45:14.922Z,24.90
2022-12-15T12:47:47.087Z,20.95
2022-12-15T12:50:20.397Z,23.27
2022-12-15T12:52:57.247Z,24.67
2022-12-15T12:55:29.525Z,27.35
2022-12-15T12:57:56.618Z,23.65
2022-12-15T13:00:26.559Z,27.70
2022-12-15T13:02:52.940Z,25.60
2022-12-15T13:05:27.439Z,24.92
2022-12-15T13:08:19.002Z,21.95
2022-12-15T13:10:47.505Z,26.40
2022-12-15T13:13:29.812Z,22.63
2022-12-15T13:16:17.917Z,24.23
2022-12-15T13:18:58.333Z,28.58
2022-12-15T13:21:44.045Z,23.75
2022-12-15T13:24:46.218Z,26.73
2022-12-15T13:27:17.035Z,29.55
2022-12-15T13:30:14.045Z,26.52
2022-12-15T13:32:43.770Z,26.38
2022-12-15T13:35:13.120Z,32.83
2022-12-15T13:37:48.943Z,25.10
2022-12-15T13:40:50.587Z,39.63
2022-12-15T13:43:26.254Z,29.58
2022-12-15T13:46:00.228Z,35.40
2022-12-15T13:51:16.631Z,37.08
2022-12-15T13:53:51.508Z,32.40
2022-12-15T13:56:28.297Z,25.35
2022-12-15T13:59:02.894Z,25.00
2022-12-15T14:04:18.311Z,32.75
2022-12-15T14:06:50.904Z,32.90
2022-12-15T14:09:22.454Z,32.78
2022-12-15T14:11:54.098Z,31.02
2022-12-15T14:14:26.400Z,29.35
2022-12-15T14:16:57.675Z,32.70
2022-12-15T14:19:25.516Z,34.13
2022-12-15T14:21:57.767Z,31.17
2022-12-15T14:24:40.225Z,28.63
2022-12-15T14:27:07.407Z,30.23
2022-12-15T14:29:33.704Z,31.42
2022-12-15T14:32:00.767Z,35.75
2022-12-15T14:34:35.172Z,32.53
2022-12-15T14:37:07.582Z,31.67
2022-12-15T14:39:42.323Z,34.78
2022-12-15T14:42:23.219Z,35.30
2022-12-15T14:47:36.519Z,28.85
2022-12-15T14:50:04.154Z,28.45
2022-12-15T14:52:42.744Z,35.47
2022-12-15T14:55:21.328Z,34.88
2022-12-15T14:57:47.917Z,38.10
2022-12-15T15:00:35.914Z,34.50
2022-12-15T15:03:10.262Z,31.40
2022-12-15T15:03:18.205Z,32.22
2022-12-15T15:05:48.464Z,32.07
2022-12-15T15:08:20.737Z,32.33
2022-12-15T15:10:47.159Z,32.13
2022-12-15T15:13:26.731Z,32.10
2022-12-15T15:15:55.265Z,31.48
2022-12-15T15:18:27.944Z,26.83
2022-12-15T15:21:01.262Z,28.42
2022-12-15T15:23:27.765Z,32.67
2022-12-15T15:25:56.460Z,31.38
2022-12-15T15:28:28.639Z,28.55
2022-12-15T15:31:05.239Z,33.85
2022-12-15T15:33:32.532Z,31.48
2022-12-15T15:36:01.295Z,30.45
2022-12-15T15:38:37.848Z,39.90
2022-12-15T15:41:23.259Z,39.17
2022-12-15T15:43:49.586Z,44.38
2022-12-15T15:46:20.103Z,41.22
2022-12-15T15:48:48.738Z,39.03
2022-12-15T15:51:15.270Z,47.33
2022-12-15T15:53:41.691Z,47.75
2022-12-15T15:56:12.073Z,48.38
2022-12-15T15:58:38.458Z,46.00
2022-12-15T16:01:11.173Z,50.20
2022-12-15T16:03:39.848Z,48.92
2022-12-15T16:06:20.465Z,53.78
2022-12-15T16:08:50.624Z,57.45
2022-12-15T16:11:17.412Z,52.78
2022-12-15T16:13:44.673Z,56.25
2022-12-15T16:16:22.888Z,53.83
2022-12-15T16:18:49.475Z,48.30
2022-12-15T16:21:17.771Z,48.35
2022-12-15T16:23:46.890Z,47.67
2022-12-15T16:26:16.110Z,55.28
2022-12-15T16:28:42.960Z,67.97
2022-12-15T16:31:15.635Z,59.90
2022-12-15T16:33:42.095Z,55.58
2022-12-15T16:36:13.754Z,60.42
2022-12-15T16:38:40.748Z,52.63
2022-12-15T16:41:11.233Z,53.88
2022-12-15T16:43:41.541Z,56.92
2022-12-15T16:46:13.921Z,54.90
2022-12-15T16:48:41.080Z,54.45
2022-12-15T16:51:10.629Z,60.40
2022-12-15T16:53:41.008Z,61.45
2022-12-15T16:56:12.806Z,58.88
2022-12-15T16:58:39.126Z,56.50
2022-12-15T17:01:05.470Z,57.63
2022-12-15T17:03:31.997Z,63.40
2022-12-15T17:06:01.856Z,67.53
2022-12-15T17:08:37.869Z,63.55
2022-12-15T17:11:04.679Z,61.97
2022-12-15T17:13:45.413Z,60.83
2022-12-15T17:16:14.426Z,65.88
2022-12-15T17:18:42.817Z,61.33
2022-12-15T17:21:26.826Z,67.68
2022-12-15T17:23:56.690Z,61.80
2022-12-15T17:26:31.923Z,67.13
2022-12-15T17:29:15.724Z,56.75
2022-12-15T17:31:42.073Z,56.75
2022-12-15T17:34:30.197Z,58.88
2022-12-15T17:36:59.201Z,59.35
2022-12-15T17:39:26.563Z,62.00
2022-12-15T17:42:02.607Z,63.47
2022-12-15T17:44:36.058Z,73.95
2022-12-15T17:47:05.505Z,69.25
2022-12-15T17:49:36.018Z,71.15
2022-12-15T17:52:16.707Z,84.40
2022-12-15T17:54:43.220Z,80.25
2022-12-15T17:57:11.675Z,67.85
2022-12-15T17:59:38.111Z,68.57
2022-12-15T18:02:04.536Z,64.85
2022-12-15T18:04:31.308Z,64.20
2022-12-15T18:07:01.478Z,67.93
2022-12-15T18:09:28.544Z,63.55
2022-12-15T18:11:54.878Z,68.50
2022-12-15T18:14:22.743Z,77.35
2022-12-15T18:16:49.306Z,73.57
2022-12-15T18:19:15.683Z,70.93
2022-12-15T18:21:42.307Z,75.28
2022-12-15T18:24:19.189Z,71.90
2022-12-15T18:26:45.515Z,69.40
2022-12-15T18:29:18.088Z,67.88
2022-12-15T18:31:47.002Z,64.93
2022-12-15T18:34:17.281Z,65.55
2022-12-15T18:36:43.878Z,68.43
2022-12-15T18:39:23.469Z,67.10
2022-12-15T18:41:50.506Z,65.63
2022-12-15T18:44:30.031Z,75.00
2022-12-15T18:46:56.461Z,70.18
2022-12-15T18:49:23.885Z,73.03
2022-12-15T18:51:50.408Z,73.80
2022-12-15T18:54:19.606Z,71.43
2022-12-15T18:56:46.035Z,71.75
2022-12-15T18:59:17.040Z,74.30
2022-12-15T19:01:45.407Z,76.40
2022-12-15T19:04:12.374Z,79.82
2022-12-15T19:06:40.453Z,67.57
2022-12-15T19:09:18.951Z,70.78
2022-12-15T19:12:06.857Z,74.20
2022-12-15T19:14:42.562Z,71.57
2022-12-15T19:17:30.546Z,73.13
2022-12-15T19:20:15.391Z,65.90
2022-12-15T19:22:43.082Z,74.85
2022-12-15T19:25:25.060Z,65.75
2022-12-15T19:27:58.315Z,74.57
2022-12-15T19:30:29.187Z,68.00
2022-12-15T19:32:55.678Z,77.13
2022-12-15T19:35:22.460Z,77.63
2022-12-15T19:37:49.827Z,77.63
2022-12-15T19:40:20.888Z,78.60
2022-12-15T19:42:48.869Z,80.05
2022-12-15T19:45:17.936Z,68.28
2022-12-15T19:47:44.669Z,74.00
2022-12-15T19:50:19.489Z,76.15
2022-12-15T19:52:48.984Z,76.05
2022-12-15T19:55:17.438Z,68.45
2022-12-15T19:57:44.527Z,66.80
2022-12-15T20:00:21.744Z,76.28
2022-12-15T20:02:55.231Z,66.90
2022-12-15T20:05:23.725Z,77.68
2022-12-15T20:07:51.742Z,68.63
2022-12-15T20:10:29.408Z,71.00
2022-12-15T20:12:58.594Z,73.95
2022-12-15T20:15:26.189Z,73.93
2022-12-15T20:17:56.882Z,68.15
2022-12-15T20:20:25.914Z,73.45
2022-12-15T20:22:55.898Z,74.18
2022-12-15T20:25:36.526Z,72.93
2022-12-15T20:28:04.489Z,71.72
2022-12-15T20:30:35.111Z,77.28
2022-12-15T20:33:03.748Z,78.30
2022-12-15T20:35:33.093Z,75.53
2022-12-15T20:38:04.210Z,66.40
2022-12-15T20:40:31.301Z,73.65
2022-12-15T20:42:57.826Z,78.03
2022-12-15T20:45:26.657Z,67.75
2022-12-15T20:47:55.655Z,71.00
2022-12-15T20:50:35.298Z,63.60
2022-12-15T20:53:02.106Z,63.67
2022-12-15T20:55:28.888Z,64.45
2022-12-15T20:57:55.261Z,60.65
2022-12-15T21:00:22.395Z,62.95
2022-12-15T21:02:49.811Z,59.45
2022-12-15T21:05:24.328Z,63.67
2022-12-15T21:07:51.868Z,64.85
2022-12-15T21:10:20.250Z,62.10
2022-12-15T21:12:49.278Z,66.22
2022-12-15T21:15:17.315Z,68.22
2022-12-15T21:17:44.084Z,59.80
2022-12-15T21:20:12.680Z,55.85
2022-12-15T21:22:40.379Z,72.03
2022-12-15T21:25:26.033Z,59.95
2022-12-15T21:27:52.894Z,66.70
2022-12-15T21:30:21.900Z,65.22
2022-12-15T21:32:49.403Z,69.18
2022-12-15T21:35:18.589Z,67.35
2022-12-15T21:37:49.473Z,63.67
2022-12-15T21:40:17.933Z,58.08
2022-12-15T21:42:44.334Z,64.00
2022-12-15T21:45:22.907Z,57.88
2022-12-15T21:48:08.776Z,57.67
2022-12-15T21:50:36.649Z,57.38
2022-12-15T21:53:04.982Z,59.60
2022-12-15T21:55:31.684Z,61.67
2022-12-15T21:57:58.377Z,65.93
2022-12-15T22:00:25.193Z,56.25
2022-12-15T22:02:55.068Z,63.40
2022-12-15T22:05:30.174Z,68.15
2022-12-15T22:08:23.010Z,66.57
2022-12-15T22:10:51.082Z,62.47
2022-12-15T22:13:21.031Z,58.35
2022-12-15T22:15:48.886Z,65.18
2022-12-15T22:18:19.672Z,64.18
2022-12-15T22:20:50.978Z,68.53
2022-12-15T22:23:18.480Z,70.00
2022-12-15T22:25:47.461Z,63.90
2022-12-15T22:28:20.589Z,55.78
2022-12-15T22:30:47.844Z,62.72
2022-12-15T22:33:21.680Z,59.50
2022-12-15T22:35:53.247Z,63.38
2022-12-15T22:38:23.254Z,62.33
2022-12-15T22:40:53.428Z,61.20
2022-12-15T22:43:34.035Z,63.13
2022-12-15T22:46:01.162Z,62.65
2022-12-15T22:48:34.096Z,58.53
2022-12-15T22:51:01.602Z,66.32
2022-12-15T22:53:31.540Z,69.35
2022-12-15T22:55:59.353Z,66.78
2022-12-15T22:58:32.448Z,62.22
2022-12-15T23:00:59.881Z,56.03
2022-12-15T23:03:29.665Z,54.13
2022-12-15T23:05:56.622Z,57.25
2022-12-15T23:08:22.981Z,54.25
2022-12-15T23:11:07.949Z,54.13
2022-12-15T23:13:34.670Z,60.20
2022-12-15T23:16:19.964Z,54.17
2022-12-15T23:18:47.637Z,49.75
2022-12-15T23:21:14.015Z,53.03
2022-12-15T23:23:40.508Z,50.15
2022-12-15T23:26:07.077Z,50.97
2022-12-15T23:28:33.928Z,53.45
2022-12-15T23:31:00.379Z,59.95
2022-12-15T23:33:28.326Z,52.78
2022-12-15T23:35:56.155Z,54.60
2022-12-15T23:38:23.314Z,54.38
2022-12-15T23:40:53.074Z,51.13
2022-12-15T23:43:20.617Z,54.40
2022-12-15T23:45:56.027Z,54.67
2022-12-15T23:48:22.437Z,62.10
2022-12-15T23:50:48.750Z,54.20
2022-12-15T23:53:15.234Z,49.65
2022-12-15T23:55:41.617Z,54.45
2022-12-15T23:58:08.155Z,56.78
